sensor_id;sensor_type;location;lat;lon;timestamp;P1;durP1;ratioP1;P2;durP2;ratioP2
68457;SDS011;65384;52.016;5.428;2023-05-24T00:00:37;7.80;;;1.85;;
68457;SDS011;65384;52.016;5.428;2023-05-24T00:03:04;13.40;;;2.03;;
68457;SDS011;65384;52.016;5.428;2023-05-24T00:05:30;6.10;;;1.77;;
68457;SDS011;65384;52.016;5.428;2023-05-24T00:07:56;10.38;;;2.00;;
68457;SDS011;65384;52.016;5.428;2023-05-24T00:10:21;10.95;;;2.13;;
68457;SDS011;65384;52.016;5.428;2023-05-24T00:12:47;9.30;;;2.10;;
68457;SDS011;65384;52.016;5.428;2023-05-24T00:15:12;10.77;;;1.80;;
68457;SDS011;65384;52.016;5.428;2023-05-24T00:17:37;9.45;;;2.03;;
68457;SDS011;65384;52.016;5.428;2023-05-24T00:20:05;10.38;;;2.60;;
68457;SDS011;65384;52.016;5.428;2023-05-24T00:22:34;7.65;;;2.28;;
68457;SDS011;65384;52.016;5.428;2023-05-24T00:25:00;6.63;;;2.30;;
68457;SDS011;65384;52.016;5.428;2023-05-24T00:27:26;8.15;;;1.88;;
68457;SDS011;65384;52.016;5.428;2023-05-24T00:29:51;8.73;;;1.90;;
68457;SDS011;65384;52.016;5.428;2023-05-24T00:32:16;8.05;;;2.15;;
68457;SDS011;65384;52.016;5.428;2023-05-24T00:34:42;7.93;;;2.33;;
68457;SDS011;65384;52.016;5.428;2023-05-24T00:37:07;6.03;;;1.98;;
68457;SDS011;65384;52.016;5.428;2023-05-24T00:39:33;7.93;;;2.25;;
68457;SDS011;65384;52.016;5.428;2023-05-24T00:41:58;8.43;;;2.00;;
68457;SDS011;65384;52.016;5.428;2023-05-24T00:44:24;7.65;;;2.00;;
68457;SDS011;65384;52.016;5.428;2023-05-24T00:46:49;11.02;;;1.95;;
68457;SDS011;65384;52.016;5.428;2023-05-24T00:49:14;12.85;;;2.13;;
68457;SDS011;65384;52.016;5.428;2023-05-24T00:51:40;9.85;;;2.17;;
68457;SDS011;65384;52.016;5.428;2023-05-24T00:54:05;12.85;;;2.60;;
68457;SDS011;65384;52.016;5.428;2023-05-24T00:56:30;6.30;;;1.75;;
68457;SDS011;65384;52.016;5.428;2023-05-24T00:58:56;8.98;;;1.90;;
68457;SDS011;65384;52.016;5.428;2023-05-24T01:01:22;7.82;;;2.10;;
68457;SDS011;65384;52.016;5.428;2023-05-24T01:03:54;11.88;;;2.22;;
68457;SDS011;65384;52.016;5.428;2023-05-24T01:06:21;7.93;;;2.10;;
68457;SDS011;65384;52.016;5.428;2023-05-24T01:25:00;17.33;;;2.53;;
68457;SDS011;65384;52.016;5.428;2023-05-24T01:27:27;9.75;;;1.90;;
68457;SDS011;65384;52.016;5.428;2023-05-24T01:29:56;7.22;;;1.90;;
68457;SDS011;65384;52.016;5.428;2023-05-24T01:32:22;11.95;;;2.30;;
68457;SDS011;65384;52.016;5.428;2023-05-24T01:34:47;9.02;;;2.10;;
68457;SDS011;65384;52.016;5.428;2023-05-24T01:37:13;14.65;;;2.33;;
68457;SDS011;65384;52.016;5.428;2023-05-24T01:39:38;7.78;;;1.90;;
68457;SDS011;65384;52.016;5.428;2023-05-24T01:44:51;10.57;;;2.35;;
68457;SDS011;65384;52.016;5.428;2023-05-24T01:49:53;12.43;;;2.10;;
68457;SDS011;65384;52.016;5.428;2023-05-24T01:52:21;9.77;;;2.30;;
68457;SDS011;65384;52.016;5.428;2023-05-24T01:54:50;11.27;;;1.98;;
68457;SDS011;65384;52.016;5.428;2023-05-24T01:57:17;9.80;;;2.50;;
68457;SDS011;65384;52.016;5.428;2023-05-24T01:59:45;10.23;;;2.30;;
68457;SDS011;65384;52.016;5.428;2023-05-24T02:02:11;11.27;;;2.92;;
68457;SDS011;65384;52.016;5.428;2023-05-24T02:04:36;8.27;;;2.08;;
68457;SDS011;65384;52.016;5.428;2023-05-24T02:07:02;11.52;;;2.47;;
68457;SDS011;65384;52.016;5.428;2023-05-24T02:09:27;12.25;;;2.35;;
68457;SDS011;65384;52.016;5.428;2023-05-24T02:11:53;10.00;;;2.08;;
68457;SDS011;65384;52.016;5.428;2023-05-24T02:14:18;9.40;;;1.98;;
68457;SDS011;65384;52.016;5.428;2023-05-24T02:16:44;10.68;;;2.17;;
68457;SDS011;65384;52.016;5.428;2023-05-24T02:19:13;10.75;;;2.30;;
68457;SDS011;65384;52.016;5.428;2023-05-24T02:21:39;8.95;;;2.45;;
68457;SDS011;65384;52.016;5.428;2023-05-24T02:24:05;13.20;;;2.40;;
68457;SDS011;65384;52.016;5.428;2023-05-24T02:26:32;11.48;;;2.25;;
68457;SDS011;65384;52.016;5.428;2023-05-24T02:28:57;11.50;;;2.22;;
68457;SDS011;65384;52.016;5.428;2023-05-24T02:31:23;11.50;;;2.05;;
68457;SDS011;65384;52.016;5.428;2023-05-24T02:33:52;13.02;;;2.30;;
68457;SDS011;65384;52.016;5.428;2023-05-24T02:36:18;17.27;;;2.47;;
68457;SDS011;65384;52.016;5.428;2023-05-24T02:38:43;8.98;;;2.55;;
68457;SDS011;65384;52.016;5.428;2023-05-24T02:41:09;10.38;;;2.38;;
68457;SDS011;65384;52.016;5.428;2023-05-24T02:43:35;13.45;;;3.00;;
68457;SDS011;65384;52.016;5.428;2023-05-24T02:46:01;11.00;;;2.70;;
68457;SDS011;65384;52.016;5.428;2023-05-24T02:48:27;13.23;;;2.63;;
68457;SDS011;65384;52.016;5.428;2023-05-24T02:50:52;7.53;;;2.17;;
68457;SDS011;65384;52.016;5.428;2023-05-24T02:53:17;15.45;;;2.63;;
68457;SDS011;65384;52.016;5.428;2023-05-24T02:55:43;12.10;;;2.40;;
68457;SDS011;65384;52.016;5.428;2023-05-24T02:58:10;13.55;;;2.50;;
68457;SDS011;65384;52.016;5.428;2023-05-24T03:00:36;18.13;;;2.75;;
68457;SDS011;65384;52.016;5.428;2023-05-24T03:03:02;10.23;;;2.28;;
68457;SDS011;65384;52.016;5.428;2023-05-24T03:05:27;10.20;;;2.38;;
68457;SDS011;65384;52.016;5.428;2023-05-24T03:07:52;13.68;;;2.20;;
68457;SDS011;65384;52.016;5.428;2023-05-24T03:10:18;11.10;;;2.40;;
68457;SDS011;65384;52.016;5.428;2023-05-24T03:12:43;10.73;;;2.35;;
68457;SDS011;65384;52.016;5.428;2023-05-24T03:15:09;8.32;;;2.47;;
68457;SDS011;65384;52.016;5.428;2023-05-24T03:17:34;11.70;;;2.40;;
68457;SDS011;65384;52.016;5.428;2023-05-24T03:20:00;9.25;;;2.30;;
68457;SDS011;65384;52.016;5.428;2023-05-24T03:22:25;13.05;;;3.25;;
68457;SDS011;65384;52.016;5.428;2023-05-24T03:24:50;10.23;;;2.15;;
68457;SDS011;65384;52.016;5.428;2023-05-24T03:27:16;7.32;;;2.25;;
68457;SDS011;65384;52.016;5.428;2023-05-24T03:29:41;11.85;;;2.60;;
68457;SDS011;65384;52.016;5.428;2023-05-24T03:32:06;8.20;;;2.00;;
68457;SDS011;65384;52.016;5.428;2023-05-24T03:34:32;12.52;;;2.42;;
68457;SDS011;65384;52.016;5.428;2023-05-24T03:36:57;9.02;;;2.30;;
68457;SDS011;65384;52.016;5.428;2023-05-24T03:39:22;14.73;;;3.10;;
68457;SDS011;65384;52.016;5.428;2023-05-24T03:41:48;11.07;;;2.22;;
68457;SDS011;65384;52.016;5.428;2023-05-24T03:44:13;12.85;;;2.47;;
68457;SDS011;65384;52.016;5.428;2023-05-24T03:46:38;9.70;;;2.30;;
68457;SDS011;65384;52.016;5.428;2023-05-24T03:49:05;12.57;;;2.42;;
68457;SDS011;65384;52.016;5.428;2023-05-24T03:51:31;7.82;;;2.30;;
68457;SDS011;65384;52.016;5.428;2023-05-24T03:53:56;6.35;;;2.05;;
68457;SDS011;65384;52.016;5.428;2023-05-24T03:56:22;14.60;;;2.70;;
68457;SDS011;65384;52.016;5.428;2023-05-24T03:58:48;12.15;;;2.47;;
68457;SDS011;65384;52.016;5.428;2023-05-24T04:01:14;9.95;;;2.28;;
68457;SDS011;65384;52.016;5.428;2023-05-24T04:03:39;18.02;;;2.75;;
68457;SDS011;65384;52.016;5.428;2023-05-24T04:06:05;6.88;;;2.10;;
68457;SDS011;65384;52.016;5.428;2023-05-24T04:08:30;11.20;;;2.42;;
68457;SDS011;65384;52.016;5.428;2023-05-24T04:10:56;11.43;;;2.40;;
68457;SDS011;65384;52.016;5.428;2023-05-24T04:13:21;14.35;;;3.17;;
68457;SDS011;65384;52.016;5.428;2023-05-24T04:15:47;15.80;;;2.47;;
68457;SDS011;65384;52.016;5.428;2023-05-24T04:18:12;9.95;;;2.55;;
68457;SDS011;65384;52.016;5.428;2023-05-24T04:20:38;7.75;;;2.17;;
68457;SDS011;65384;52.016;5.428;2023-05-24T04:23:03;10.32;;;2.60;;
68457;SDS011;65384;52.016;5.428;2023-05-24T04:25:28;11.45;;;3.20;;
68457;SDS011;65384;52.016;5.428;2023-05-24T04:27:54;12.25;;;3.05;;
68457;SDS011;65384;52.016;5.428;2023-05-24T04:30:20;10.35;;;2.67;;
68457;SDS011;65384;52.016;5.428;2023-05-24T04:32:46;12.93;;;2.60;;
68457;SDS011;65384;52.016;5.428;2023-05-24T04:35:12;10.98;;;2.50;;
68457;SDS011;65384;52.016;5.428;2023-05-24T04:37:38;11.70;;;3.00;;
68457;SDS011;65384;52.016;5.428;2023-05-24T04:40:05;11.00;;;2.60;;
68457;SDS011;65384;52.016;5.428;2023-05-24T04:42:32;14.30;;;2.63;;
68457;SDS011;65384;52.016;5.428;2023-05-24T04:44:57;12.27;;;2.88;;
68457;SDS011;65384;52.016;5.428;2023-05-24T04:47:23;12.88;;;3.10;;
68457;SDS011;65384;52.016;5.428;2023-05-24T04:49:49;13.90;;;2.80;;
68457;SDS011;65384;52.016;5.428;2023-05-24T04:52:15;20.50;;;3.42;;
68457;SDS011;65384;52.016;5.428;2023-05-24T04:54:41;25.02;;;4.07;;
68457;SDS011;65384;52.016;5.428;2023-05-24T04:57:07;21.77;;;3.80;;
68457;SDS011;65384;52.016;5.428;2023-05-24T04:59:32;19.13;;;3.97;;
68457;SDS011;65384;52.016;5.428;2023-05-24T05:01:58;17.90;;;3.80;;
68457;SDS011;65384;52.016;5.428;2023-05-24T05:04:23;18.85;;;3.83;;
68457;SDS011;65384;52.016;5.428;2023-05-24T05:06:49;13.63;;;3.90;;
68457;SDS011;65384;52.016;5.428;2023-05-24T05:09:14;15.27;;;3.75;;
68457;SDS011;65384;52.016;5.428;2023-05-24T05:11:40;19.75;;;4.47;;
68457;SDS011;65384;52.016;5.428;2023-05-24T05:14:05;20.63;;;4.05;;
68457;SDS011;65384;52.016;5.428;2023-05-24T05:16:33;14.38;;;3.83;;
68457;SDS011;65384;52.016;5.428;2023-05-24T05:19:00;24.15;;;3.90;;
68457;SDS011;65384;52.016;5.428;2023-05-24T05:21:25;15.18;;;3.30;;
68457;SDS011;65384;52.016;5.428;2023-05-24T05:23:51;15.75;;;3.85;;
68457;SDS011;65384;52.016;5.428;2023-05-24T05:26:16;15.23;;;3.85;;
68457;SDS011;65384;52.016;5.428;2023-05-24T05:28:42;23.20;;;3.78;;
68457;SDS011;65384;52.016;5.428;2023-05-24T05:31:07;20.33;;;4.90;;
68457;SDS011;65384;52.016;5.428;2023-05-24T05:33:32;25.17;;;4.43;;
68457;SDS011;65384;52.016;5.428;2023-05-24T05:35:58;16.08;;;3.28;;
68457;SDS011;65384;52.016;5.428;2023-05-24T05:38:24;19.05;;;3.50;;
68457;SDS011;65384;52.016;5.428;2023-05-24T05:40:49;12.75;;;3.47;;
68457;SDS011;65384;52.016;5.428;2023-05-24T05:43:14;17.80;;;3.53;;
68457;SDS011;65384;52.016;5.428;2023-05-24T05:45:40;10.65;;;3.38;;
68457;SDS011;65384;52.016;5.428;2023-05-24T05:48:05;19.02;;;3.55;;
68457;SDS011;65384;52.016;5.428;2023-05-24T05:50:31;15.57;;;3.47;;
68457;SDS011;65384;52.016;5.428;2023-05-24T05:52:56;14.40;;;3.65;;
68457;SDS011;65384;52.016;5.428;2023-05-24T05:55:22;17.92;;;3.50;;
68457;SDS011;65384;52.016;5.428;2023-05-24T05:57:48;15.25;;;4.15;;
68457;SDS011;65384;52.016;5.428;2023-05-24T06:00:13;14.82;;;3.15;;
68457;SDS011;65384;52.016;5.428;2023-05-24T06:02:39;20.02;;;3.30;;
68457;SDS011;65384;52.016;5.428;2023-05-24T06:05:04;18.98;;;3.35;;
68457;SDS011;65384;52.016;5.428;2023-05-24T06:07:30;17.73;;;3.30;;
68457;SDS011;65384;52.016;5.428;2023-05-24T06:09:55;22.00;;;3.50;;
68457;SDS011;65384;52.016;5.428;2023-05-24T06:12:21;13.95;;;3.50;;
68457;SDS011;65384;52.016;5.428;2023-05-24T06:14:46;15.88;;;3.17;;
68457;SDS011;65384;52.016;5.428;2023-05-24T06:17:14;20.63;;;2.83;;
68457;SDS011;65384;52.016;5.428;2023-05-24T06:19:40;12.27;;;2.88;;
68457;SDS011;65384;52.016;5.428;2023-05-24T06:22:05;12.60;;;2.67;;
68457;SDS011;65384;52.016;5.428;2023-05-24T06:24:31;14.57;;;2.88;;
68457;SDS011;65384;52.016;5.428;2023-05-24T06:26:58;12.30;;;2.67;;
68457;SDS011;65384;52.016;5.428;2023-05-24T06:29:24;10.55;;;2.72;;
68457;SDS011;65384;52.016;5.428;2023-05-24T06:31:49;12.63;;;2.97;;
68457;SDS011;65384;52.016;5.428;2023-05-24T06:34:14;17.98;;;2.83;;
68457;SDS011;65384;52.016;5.428;2023-05-24T06:36:41;12.18;;;2.88;;
68457;SDS011;65384;52.016;5.428;2023-05-24T06:39:08;16.60;;;2.67;;
68457;SDS011;65384;52.016;5.428;2023-05-24T06:41:34;16.70;;;2.63;;
68457;SDS011;65384;52.016;5.428;2023-05-24T06:44:00;13.23;;;2.90;;
68457;SDS011;65384;52.016;5.428;2023-05-24T06:46:25;15.27;;;2.72;;
68457;SDS011;65384;52.016;5.428;2023-05-24T06:48:51;18.73;;;2.80;;
68457;SDS011;65384;52.016;5.428;2023-05-24T06:51:16;12.07;;;2.35;;
68457;SDS011;65384;52.016;5.428;2023-05-24T06:53:42;12.48;;;2.90;;
68457;SDS011;65384;52.016;5.428;2023-05-24T06:56:08;13.55;;;2.67;;
68457;SDS011;65384;52.016;5.428;2023-05-24T06:58:34;10.35;;;2.58;;
68457;SDS011;65384;52.016;5.428;2023-05-24T07:01:00;10.68;;;2.22;;
68457;SDS011;65384;52.016;5.428;2023-05-24T07:03:26;9.48;;;3.00;;
68457;SDS011;65384;52.016;5.428;2023-05-24T07:05:52;9.90;;;2.55;;
68457;SDS011;65384;52.016;5.428;2023-05-24T07:08:17;13.10;;;2.42;;
68457;SDS011;65384;52.016;5.428;2023-05-24T07:10:42;9.43;;;2.33;;
68457;SDS011;65384;52.016;5.428;2023-05-24T07:13:09;12.13;;;2.47;;
68457;SDS011;65384;52.016;5.428;2023-05-24T07:15:41;10.38;;;2.20;;
68457;SDS011;65384;52.016;5.428;2023-05-24T07:18:07;13.00;;;2.47;;
68457;SDS011;65384;52.016;5.428;2023-05-24T07:20:32;12.45;;;2.40;;
68457;SDS011;65384;52.016;5.428;2023-05-24T07:22:58;10.13;;;2.22;;
68457;SDS011;65384;52.016;5.428;2023-05-24T07:25:25;12.32;;;2.33;;
68457;SDS011;65384;52.016;5.428;2023-05-24T07:27:50;11.02;;;2.25;;
68457;SDS011;65384;52.016;5.428;2023-05-24T07:30:15;11.15;;;2.17;;
68457;SDS011;65384;52.016;5.428;2023-05-24T07:32:41;12.48;;;2.45;;
68457;SDS011;65384;52.016;5.428;2023-05-24T07:35:07;16.15;;;2.75;;
68457;SDS011;65384;52.016;5.428;2023-05-24T07:37:32;12.77;;;2.53;;
68457;SDS011;65384;52.016;5.428;2023-05-24T07:39:58;12.25;;;2.50;;
68457;SDS011;65384;52.016;5.428;2023-05-24T07:42:23;13.23;;;2.53;;
68457;SDS011;65384;52.016;5.428;2023-05-24T07:44:49;10.18;;;2.45;;
68457;SDS011;65384;52.016;5.428;2023-05-24T07:47:14;15.80;;;2.58;;
68457;SDS011;65384;52.016;5.428;2023-05-24T07:49:40;11.98;;;2.30;;
68457;SDS011;65384;52.016;5.428;2023-05-24T07:52:06;12.00;;;2.30;;
68457;SDS011;65384;52.016;5.428;2023-05-24T07:54:31;12.40;;;3.42;;
68457;SDS011;65384;52.016;5.428;2023-05-24T07:56:58;12.38;;;2.08;;
68457;SDS011;65384;52.016;5.428;2023-05-24T07:59:23;10.55;;;2.42;;
68457;SDS011;65384;52.016;5.428;2023-05-24T08:01:49;9.05;;;2.28;;
68457;SDS011;65384;52.016;5.428;2023-05-24T08:04:14;9.93;;;2.03;;
68457;SDS011;65384;52.016;5.428;2023-05-24T08:06:40;14.82;;;2.58;;
68457;SDS011;65384;52.016;5.428;2023-05-24T08:09:05;11.50;;;2.40;;
68457;SDS011;65384;52.016;5.428;2023-05-24T08:11:33;10.13;;;2.30;;
68457;SDS011;65384;52.016;5.428;2023-05-24T08:13:58;9.45;;;2.10;;
68457;SDS011;65384;52.016;5.428;2023-05-24T08:16:24;12.02;;;2.38;;
68457;SDS011;65384;52.016;5.428;2023-05-24T08:18:49;9.68;;;1.95;;
68457;SDS011;65384;52.016;5.428;2023-05-24T08:21:15;7.50;;;2.30;;
68457;SDS011;65384;52.016;5.428;2023-05-24T08:23:41;10.60;;;2.38;;
68457;SDS011;65384;52.016;5.428;2023-05-24T08:26:06;12.73;;;2.30;;
68457;SDS011;65384;52.016;5.428;2023-05-24T08:28:32;8.77;;;2.08;;
68457;SDS011;65384;52.016;5.428;2023-05-24T08:30:58;10.25;;;2.13;;
68457;SDS011;65384;52.016;5.428;2023-05-24T08:33:23;9.15;;;2.22;;
68457;SDS011;65384;52.016;5.428;2023-05-24T08:35:49;10.52;;;2.08;;
68457;SDS011;65384;52.016;5.428;2023-05-24T08:38:15;10.60;;;2.22;;
68457;SDS011;65384;52.016;5.428;2023-05-24T08:40:41;12.00;;;2.50;;
68457;SDS011;65384;52.016;5.428;2023-05-24T08:43:06;9.43;;;2.30;;
68457;SDS011;65384;52.016;5.428;2023-05-24T08:45:36;11.32;;;2.17;;
68457;SDS011;65384;52.016;5.428;2023-05-24T08:48:02;13.13;;;2.58;;
68457;SDS011;65384;52.016;5.428;2023-05-24T08:50:29;8.40;;;2.25;;
68457;SDS011;65384;52.016;5.428;2023-05-24T08:52:55;7.25;;;2.20;;
68457;SDS011;65384;52.016;5.428;2023-05-24T08:55:22;8.85;;;2.42;;
68457;SDS011;65384;52.016;5.428;2023-05-24T08:57:48;12.27;;;2.30;;
68457;SDS011;65384;52.016;5.428;2023-05-24T09:00:14;7.82;;;2.20;;
68457;SDS011;65384;52.016;5.428;2023-05-24T09:02:40;8.82;;;2.17;;
68457;SDS011;65384;52.016;5.428;2023-05-24T09:05:08;10.88;;;2.30;;
68457;SDS011;65384;52.016;5.428;2023-05-24T09:07:34;8.90;;;2.25;;
68457;SDS011;65384;52.016;5.428;2023-05-24T09:10:04;7.78;;;2.28;;
68457;SDS011;65384;52.016;5.428;2023-05-24T09:12:31;11.45;;;2.17;;
68457;SDS011;65384;52.016;5.428;2023-05-24T09:14:57;13.93;;;2.58;;
68457;SDS011;65384;52.016;5.428;2023-05-24T09:17:23;6.88;;;2.10;;
68457;SDS011;65384;52.016;5.428;2023-05-24T09:19:49;7.38;;;2.00;;
68457;SDS011;65384;52.016;5.428;2023-05-24T09:22:16;9.40;;;2.10;;
68457;SDS011;65384;52.016;5.428;2023-05-24T09:24:47;7.15;;;2.00;;
68457;SDS011;65384;52.016;5.428;2023-05-24T09:27:17;6.68;;;1.88;;
68457;SDS011;65384;52.016;5.428;2023-05-24T09:29:45;9.18;;;2.20;;
68457;SDS011;65384;52.016;5.428;2023-05-24T09:32:12;9.05;;;2.30;;
68457;SDS011;65384;52.016;5.428;2023-05-24T09:34:39;8.40;;;2.15;;
68457;SDS011;65384;52.016;5.428;2023-05-24T09:37:05;8.70;;;1.98;;
68457;SDS011;65384;52.016;5.428;2023-05-24T09:39:37;12.18;;;2.47;;
68457;SDS011;65384;52.016;5.428;2023-05-24T09:42:04;7.68;;;2.10;;
68457;SDS011;65384;52.016;5.428;2023-05-24T09:44:30;8.18;;;2.22;;
68457;SDS011;65384;52.016;5.428;2023-05-24T09:47:02;7.90;;;1.95;;
68457;SDS011;65384;52.016;5.428;2023-05-24T09:49:29;9.50;;;2.10;;
68457;SDS011;65384;52.016;5.428;2023-05-24T09:51:55;11.32;;;2.35;;
68457;SDS011;65384;52.016;5.428;2023-05-24T09:54:20;7.35;;;2.08;;
68457;SDS011;65384;52.016;5.428;2023-05-24T09:56:46;8.55;;;2.13;;
68457;SDS011;65384;52.016;5.428;2023-05-24T09:59:12;10.18;;;2.25;;
68457;SDS011;65384;52.016;5.428;2023-05-24T10:01:38;10.38;;;2.25;;
68457;SDS011;65384;52.016;5.428;2023-05-24T10:04:03;8.38;;;2.03;;
68457;SDS011;65384;52.016;5.428;2023-05-24T10:09:08;7.60;;;2.30;;
68457;SDS011;65384;52.016;5.428;2023-05-24T10:11:36;11.88;;;3.00;;
68457;SDS011;65384;52.016;5.428;2023-05-24T10:14:03;7.97;;;2.03;;
68457;SDS011;65384;52.016;5.428;2023-05-24T10:16:30;11.15;;;2.38;;
68457;SDS011;65384;52.016;5.428;2023-05-24T10:18:55;9.80;;;2.03;;
68457;SDS011;65384;52.016;5.428;2023-05-24T10:21:22;9.80;;;2.50;;
68457;SDS011;65384;52.016;5.428;2023-05-24T10:23:50;10.75;;;2.30;;
68457;SDS011;65384;52.016;5.428;2023-05-24T10:26:16;12.98;;;2.40;;
68457;SDS011;65384;52.016;5.428;2023-05-24T10:28:50;8.93;;;2.40;;
68457;SDS011;65384;52.016;5.428;2023-05-24T10:31:21;9.60;;;2.45;;
68457;SDS011;65384;52.016;5.428;2023-05-24T10:33:49;11.23;;;2.35;;
68457;SDS011;65384;52.016;5.428;2023-05-24T10:36:15;13.18;;;2.28;;
68457;SDS011;65384;52.016;5.428;2023-05-24T10:38:41;8.70;;;2.85;;
68457;SDS011;65384;52.016;5.428;2023-05-24T10:41:07;10.13;;;2.35;;
68457;SDS011;65384;52.016;5.428;2023-05-24T10:43:36;12.80;;;2.53;;
68457;SDS011;65384;52.016;5.428;2023-05-24T10:46:02;7.55;;;2.47;;
68457;SDS011;65384;52.016;5.428;2023-05-24T10:50:54;7.30;;;2.27;;
68457;SDS011;65384;52.016;5.428;2023-05-24T10:53:21;11.73;;;2.75;;
68457;SDS011;65384;52.016;5.428;2023-05-24T10:55:57;13.77;;;2.40;;
68457;SDS011;65384;52.016;5.428;2023-05-24T10:58:27;11.50;;;2.40;;
68457;SDS011;65384;52.016;5.428;2023-05-24T11:01:13;13.60;;;2.50;;
68457;SDS011;65384;52.016;5.428;2023-05-24T11:03:47;10.52;;;2.20;;
68457;SDS011;65384;52.016;5.428;2023-05-24T11:06:12;8.45;;;2.15;;
68457;SDS011;65384;52.016;5.428;2023-05-24T11:08:39;10.35;;;2.65;;
68457;SDS011;65384;52.016;5.428;2023-05-24T11:11:08;7.32;;;2.10;;
68457;SDS011;65384;52.016;5.428;2023-05-24T11:13:38;8.15;;;2.25;;
68457;SDS011;65384;52.016;5.428;2023-05-24T11:16:05;9.40;;;2.17;;
68457;SDS011;65384;52.016;5.428;2023-05-24T11:18:30;9.30;;;2.05;;
68457;SDS011;65384;52.016;5.428;2023-05-24T11:20:58;9.70;;;2.05;;
68457;SDS011;65384;52.016;5.428;2023-05-24T11:23:23;10.57;;;2.40;;
68457;SDS011;65384;52.016;5.428;2023-05-24T11:25:49;7.20;;;2.00;;
68457;SDS011;65384;52.016;5.428;2023-05-24T11:28:14;11.57;;;2.33;;
68457;SDS011;65384;52.016;5.428;2023-05-24T11:30:44;11.60;;;2.05;;
68457;SDS011;65384;52.016;5.428;2023-05-24T11:33:20;10.43;;;2.00;;
68457;SDS011;65384;52.016;5.428;2023-05-24T11:35:50;8.65;;;2.17;;
68457;SDS011;65384;52.016;5.428;2023-05-24T11:38:17;7.35;;;2.20;;
68457;SDS011;65384;52.016;5.428;2023-05-24T11:40:43;10.30;;;3.45;;
68457;SDS011;65384;52.016;5.428;2023-05-24T11:43:13;9.68;;;2.58;;
68457;SDS011;65384;52.016;5.428;2023-05-24T11:45:47;10.82;;;2.00;;
68457;SDS011;65384;52.016;5.428;2023-05-24T11:48:13;8.00;;;2.03;;
68457;SDS011;65384;52.016;5.428;2023-05-24T11:50:39;11.13;;;2.40;;
68457;SDS011;65384;52.016;5.428;2023-05-24T11:53:12;9.60;;;2.08;;
68457;SDS011;65384;52.016;5.428;2023-05-24T11:55:39;8.52;;;2.13;;
68457;SDS011;65384;52.016;5.428;2023-05-24T12:00:41;7.80;;;2.10;;
68457;SDS011;65384;52.016;5.428;2023-05-24T12:03:07;7.63;;;1.90;;
68457;SDS011;65384;52.016;5.428;2023-05-24T12:05:33;5.63;;;2.17;;
68457;SDS011;65384;52.016;5.428;2023-05-24T12:08:07;8.88;;;1.88;;
68457;SDS011;65384;52.016;5.428;2023-05-24T12:10:34;12.80;;;2.15;;
68457;SDS011;65384;52.016;5.428;2023-05-24T12:13:01;12.75;;;2.25;;
68457;SDS011;65384;52.016;5.428;2023-05-24T12:15:27;8.75;;;2.30;;
68457;SDS011;65384;52.016;5.428;2023-05-24T12:17:53;7.90;;;2.20;;
68457;SDS011;65384;52.016;5.428;2023-05-24T12:20:18;6.45;;;2.20;;
68457;SDS011;65384;52.016;5.428;2023-05-24T12:22:49;8.95;;;2.10;;
68457;SDS011;65384;52.016;5.428;2023-05-24T12:25:19;11.60;;;2.10;;
68457;SDS011;65384;52.016;5.428;2023-05-24T12:27:51;8.45;;;2.20;;
68457;SDS011;65384;52.016;5.428;2023-05-24T12:30:20;7.10;;;2.03;;
68457;SDS011;65384;52.016;5.428;2023-05-24T12:32:52;8.85;;;2.42;;
68457;SDS011;65384;52.016;5.428;2023-05-24T12:35:19;9.45;;;2.17;;
68457;SDS011;65384;52.016;5.428;2023-05-24T12:37:45;8.80;;;2.28;;
68457;SDS011;65384;52.016;5.428;2023-05-24T12:40:16;11.15;;;2.72;;
68457;SDS011;65384;52.016;5.428;2023-05-24T12:42:49;12.68;;;2.55;;
68457;SDS011;65384;52.016;5.428;2023-05-24T12:45:16;7.32;;;2.15;;
68457;SDS011;65384;52.016;5.428;2023-05-24T12:47:48;8.13;;;2.42;;
68457;SDS011;65384;52.016;5.428;2023-05-24T12:50:14;9.75;;;1.95;;
68457;SDS011;65384;52.016;5.428;2023-05-24T12:52:41;8.60;;;2.13;;
68457;SDS011;65384;52.016;5.428;2023-05-24T12:55:08;8.57;;;2.30;;
68457;SDS011;65384;52.016;5.428;2023-05-24T12:57:33;7.93;;;2.10;;
68457;SDS011;65384;52.016;5.428;2023-05-24T12:59:59;8.82;;;2.40;;
68457;SDS011;65384;52.016;5.428;2023-05-24T13:02:24;8.85;;;2.20;;
68457;SDS011;65384;52.016;5.428;2023-05-24T13:04:50;8.85;;;2.30;;
68457;SDS011;65384;52.016;5.428;2023-05-24T13:07:16;7.93;;;2.38;;
68457;SDS011;65384;52.016;5.428;2023-05-24T13:09:41;8.57;;;2.25;;
68457;SDS011;65384;52.016;5.428;2023-05-24T13:12:07;10.93;;;2.60;;
68457;SDS011;65384;52.016;5.428;2023-05-24T13:14:32;9.85;;;2.60;;
68457;SDS011;65384;52.016;5.428;2023-05-24T13:16:58;10.40;;;3.22;;
68457;SDS011;65384;52.016;5.428;2023-05-24T13:19:24;12.63;;;3.00;;
68457;SDS011;65384;52.016;5.428;2023-05-24T13:21:49;11.35;;;2.92;;
68457;SDS011;65384;52.016;5.428;2023-05-24T13:24:14;11.43;;;2.92;;
68457;SDS011;65384;52.016;5.428;2023-05-24T13:26:40;8.85;;;2.65;;
68457;SDS011;65384;52.016;5.428;2023-05-24T13:29:05;9.63;;;2.63;;
68457;SDS011;65384;52.016;5.428;2023-05-24T13:31:31;10.40;;;2.95;;
68457;SDS011;65384;52.016;5.428;2023-05-24T13:33:57;8.40;;;2.50;;
68457;SDS011;65384;52.016;5.428;2023-05-24T13:36:22;9.32;;;2.28;;
68457;SDS011;65384;52.016;5.428;2023-05-24T13:38:48;9.40;;;2.60;;
68457;SDS011;65384;52.016;5.428;2023-05-24T13:41:13;9.75;;;2.50;;
68457;SDS011;65384;52.016;5.428;2023-05-24T13:43:38;9.02;;;2.60;;
68457;SDS011;65384;52.016;5.428;2023-05-24T13:46:04;11.85;;;2.90;;
68457;SDS011;65384;52.016;5.428;2023-05-24T13:48:30;7.60;;;2.50;;
68457;SDS011;65384;52.016;5.428;2023-05-24T13:50:55;7.63;;;2.15;;
68457;SDS011;65384;52.016;5.428;2023-05-24T13:53:21;7.80;;;2.40;;
68457;SDS011;65384;52.016;5.428;2023-05-24T13:55:47;8.75;;;2.60;;
68457;SDS011;65384;52.016;5.428;2023-05-24T13:58:12;10.27;;;3.10;;
68457;SDS011;65384;52.016;5.428;2023-05-24T14:00:38;9.90;;;2.60;;
68457;SDS011;65384;52.016;5.428;2023-05-24T14:03:03;8.60;;;2.42;;
68457;SDS011;65384;52.016;5.428;2023-05-24T14:05:30;9.27;;;2.38;;
68457;SDS011;65384;52.016;5.428;2023-05-24T14:07:57;9.48;;;2.45;;
68457;SDS011;65384;52.016;5.428;2023-05-24T14:10:28;8.38;;;2.45;;
68457;SDS011;65384;52.016;5.428;2023-05-24T14:12:53;11.93;;;2.58;;
68457;SDS011;65384;52.016;5.428;2023-05-24T14:15:19;11.15;;;2.53;;
68457;SDS011;65384;52.016;5.428;2023-05-24T14:17:44;8.43;;;2.42;;
68457;SDS011;65384;52.016;5.428;2023-05-24T14:20:10;8.05;;;2.58;;
68457;SDS011;65384;52.016;5.428;2023-05-24T14:22:36;7.25;;;2.33;;
68457;SDS011;65384;52.016;5.428;2023-05-24T14:25:01;8.77;;;2.10;;
68457;SDS011;65384;52.016;5.428;2023-05-24T14:27:28;9.93;;;2.50;;
68457;SDS011;65384;52.016;5.428;2023-05-24T14:29:54;7.20;;;2.30;;
68457;SDS011;65384;52.016;5.428;2023-05-24T14:32:20;7.47;;;2.35;;
68457;SDS011;65384;52.016;5.428;2023-05-24T14:34:45;8.82;;;2.35;;
68457;SDS011;65384;52.016;5.428;2023-05-24T14:37:11;6.57;;;2.25;;
68457;SDS011;65384;52.016;5.428;2023-05-24T14:39:36;7.03;;;2.00;;
68457;SDS011;65384;52.016;5.428;2023-05-24T14:42:01;9.23;;;2.38;;
68457;SDS011;65384;52.016;5.428;2023-05-24T14:44:27;12.32;;;2.38;;
68457;SDS011;65384;52.016;5.428;2023-05-24T14:46:52;7.18;;;2.13;;
68457;SDS011;65384;52.016;5.428;2023-05-24T14:49:18;9.23;;;2.28;;
68457;SDS011;65384;52.016;5.428;2023-05-24T14:51:45;10.82;;;2.20;;
68457;SDS011;65384;52.016;5.428;2023-05-24T14:54:12;7.47;;;2.20;;
68457;SDS011;65384;52.016;5.428;2023-05-24T14:56:37;8.68;;;2.20;;
68457;SDS011;65384;52.016;5.428;2023-05-24T14:59:03;10.75;;;2.63;;
68457;SDS011;65384;52.016;5.428;2023-05-24T15:01:28;8.73;;;2.33;;
68457;SDS011;65384;52.016;5.428;2023-05-24T15:03:57;10.13;;;2.50;;